Time;durP1;ratioP1;P1;durP2;ratioP2;P2;SDS_P1;SDS_P2;PMS_P1;PMS_P2;Temp;Humidity;BMP_temperature;BMP_pressure;BME280_temperature;BME280_humidity;BME280_pressure;Samples;Min_cycle;Max_cycle;Signal;HPM_P1;HPM_P2
2023/07/17 00:00:02;;;;;;;5.47;2.67;;;20.60;1.00;;;;;;7387996;19;20022;-65
2023/07/17 00:02:33;;;;;;;7.68;2.67;;;20.50;1.00;;;;;;7387754;19;20034;-64
2023/07/17 00:05:04;;;;;;;6.38;2.95;;;20.50;1.00;;;;;;7388493;19;20509;-65
2023/07/17 00:07:34;;;;;;;7.05;3.17;;;20.50;1.00;;;;;;7388931;19;20045;-64
2023/07/17 00:10:08;;;;;;;6.28;2.70;;;20.50;1.00;;;;;;7387765;19;20406;-64
2023/07/17 00:12:39;;;;;;;6.55;2.80;;;20.60;1.00;;;;;;7385560;19;20038;-65
2023/07/17 00:15:09;;;;;;;4.07;2.67;;;20.60;1.00;;;;;;7388051;19;20485;-64
2023/07/17 00:17:39;;;;;;;4.82;2.60;;;20.50;1.00;;;;;;7388841;19;20018;-65
2023/07/17 00:20:12;;;;;;;5.13;2.20;;;20.50;1.00;;;;;;7387410;19;20450;-64
2023/07/17 00:22:43;;;;;;;5.28;3.33;;;20.50;1.00;;;;;;7388615;19;20478;-65
2023/07/17 00:25:15;;;;;;;6.30;2.47;;;20.50;1.00;;;;;;7387802;19;20077;-65
2023/07/17 00:27:47;;;;;;;5.65;2.80;;;20.60;1.00;;;;;;7388459;19;20018;-65
2023/07/17 00:30:17;;;;;;;5.35;2.60;;;20.60;1.00;;;;;;7386869;19;20014;-64
2023/07/17 00:32:46;;;;;;;6.10;2.90;;;20.70;1.00;;;;;;7386226;19;20093;-65
2023/07/17 00:35:17;;;;;;;6.20;2.75;;;20.60;1.00;;;;;;7387837;19;20031;-65
2023/07/17 00:37:47;;;;;;;4.82;2.80;;;20.50;1.00;;;;;;7388883;19;20029;-65
2023/07/17 00:40:19;;;;;;;4.03;2.50;;;20.40;1.00;;;;;;7386735;19;20413;-65
2023/07/17 00:42:49;;;;;;;4.85;2.67;;;20.20;1.00;;;;;;7388053;19;20042;-65
2023/07/17 00:45:19;;;;;;;4.85;2.63;;;20.10;1.00;;;;;;7387798;19;20018;-65
2023/07/17 00:47:49;;;;;;;7.60;2.83;;;20.00;1.00;;;;;;7387663;19;20106;-65
2023/07/17 00:50:19;;;;;;;9.70;3.13;;;20.10;1.00;;;;;;7386338;19;20031;-65
2023/07/17 00:52:49;;;;;;;5.55;2.83;;;20.20;1.00;;;;;;7385910;19;20044;-64
2023/07/17 00:55:22;;;;;;;6.15;2.95;;;20.20;1.00;;;;;;7387535;19;20026;-64
2023/07/17 00:57:54;;;;;;;5.18;2.83;;;20.10;1.00;;;;;;7387292;19;20078;-64
2023/07/17 01:00:25;;;;;;;5.10;2.92;;;20.30;1.00;;;;;;7386776;19;20412;-63
2023/07/17 01:02:56;;;;;;;6.60;3.13;;;20.40;1.00;;;;;;7387828;19;20014;-64
2023/07/17 01:05:26;;;;;;;4.78;2.80;;;20.50;1.00;;;;;;7386762;19;20019;-64
2023/07/17 01:07:57;;;;;;;5.05;3.13;;;20.60;1.00;;;;;;7387165;19;20358;-64
2023/07/17 01:10:30;;;;;;;6.55;2.78;;;20.50;1.00;;;;;;7390224;19;20478;-64
2023/07/17 01:13:00;;;;;;;5.55;2.50;;;20.30;1.00;;;;;;7391993;19;20082;-64
2023/07/17 01:15:30;;;;;;;3.13;2.55;;;20.30;1.00;;;;;;7394066;19;20046;-64
2023/07/17 01:18:00;;;;;;;4.53;2.72;;;20.20;1.00;;;;;;7394331;19;20101;-63
2023/07/17 01:20:30;;;;;;;6.00;2.90;;;20.00;1.00;;;;;;7392297;19;20022;-64
2023/07/17 01:23:04;;;;;;;4.65;2.92;;;20.20;1.00;;;;;;7393978;19;20074;-64
2023/07/17 01:25:35;;;;;;;13.57;5.57;;;20.20;1.00;;;;;;7393816;19;20011;-64
2023/07/17 01:28:05;;;;;;;12.65;4.60;;;20.10;1.00;;;;;;7393687;19;20011;-64
2023/07/17 01:30:35;;;;;;;9.93;4.63;;;20.00;1.00;;;;;;7392189;19;20039;-64
2023/07/17 01:33:05;;;;;;;7.43;3.63;;;20.00;1.00;;;;;;7391772;19;20089;-64
2023/07/17 01:35:35;;;;;;;5.93;3.30;;;19.90;1.00;;;;;;7393310;19;20018;-63
2023/07/17 01:38:08;;;;;;;7.10;2.97;;;20.00;1.00;;;;;;7393662;19;20014;-64
2023/07/17 01:40:38;;;;;;;6.25;2.95;;;20.10;1.00;;;;;;7392596;19;20035;-64
2023/07/17 01:43:07;;;;;;;5.93;2.88;;;20.10;1.00;;;;;;7393805;19;20010;-64
2023/07/17 01:45:38;;;;;;;5.72;2.63;;;20.20;1.00;;;;;;7394424;19;20007;-64
2023/07/17 01:48:08;;;;;;;6.38;2.95;;;20.10;1.00;;;;;;7393461;19;20047;-65
2023/07/17 01:50:38;;;;;;;5.10;2.78;;;20.10;1.00;;;;;;7391731;19;20729;-63
2023/07/17 01:53:11;;;;;;;4.65;2.72;;;20.00;1.00;;;;;;7391212;19;20019;-63
2023/07/17 01:55:41;;;;;;;7.13;3.20;;;20.00;1.00;;;;;;7393022;19;20018;-63
2023/07/17 01:58:10;;;;;;;5.22;2.75;;;19.90;1.00;;;;;;7392685;19;20088;-64
2023/07/17 02:00:40;;;;;;;4.03;2.70;;;19.90;1.00;;;;;;7391757;19;20028;-63
2023/07/17 02:03:10;;;;;;;3.47;2.47;;;20.00;1.00;;;;;;7392669;19;20015;-63
2023/07/17 02:05:40;;;;;;;5.60;2.92;;;20.00;1.00;;;;;;7392741;19;20400;-63
2023/07/17 02:08:13;;;;;;;6.18;2.75;;;19.90;1.00;;;;;;7392777;19;20326;-63
2023/07/17 02:10:44;;;;;;;4.95;2.83;;;20.00;1.00;;;;;;7390909;19;20086;-63
2023/07/17 02:13:14;;;;;;;5.20;2.42;;;20.00;1.00;;;;;;7390716;19;20038;-63
2023/07/17 02:15:44;;;;;;;9.35;3.08;;;19.90;1.00;;;;;;7391909;19;20037;-63
2023/07/17 02:18:14;;;;;;;4.20;2.40;;;20.00;1.00;;;;;;7392099;19;20082;-63
2023/07/17 02:20:44;;;;;;;6.05;2.90;;;20.10;1.00;;;;;;7388250;19;20022;-63
2023/07/17 02:23:16;;;;;;;4.00;2.75;;;20.00;1.00;;;;;;7391662;19;20078;-64
2023/07/17 02:25:46;;;;;;;7.22;3.00;;;19.80;1.00;;;;;;7391954;19;20482;-63
2023/07/17 02:28:17;;;;;;;5.65;3.55;;;19.80;1.00;;;;;;7391729;19;20801;-64
2023/07/17 02:30:47;;;;;;;7.45;3.10;;;19.80;1.00;;;;;;7390554;19;20460;-64
2023/07/17 02:33:17;;;;;;;5.15;3.10;;;19.70;1.00;;;;;;7390108;19;20014;-64
2023/07/17 02:35:49;;;;;;;7.15;2.72;;;19.60;1.00;;;;;;7391347;19;20070;-64
2023/07/17 02:38:22;;;;;;;4.60;2.88;;;19.50;1.00;;;;;;7391476;19;20074;-64
2023/07/17 02:40:52;;;;;;;6.65;3.13;;;19.40;1.00;;;;;;7390216;19;20014;-63
2023/07/17 02:43:22;;;;;;;5.75;2.80;;;19.50;1.00;;;;;;7391527;19;20082;-63
2023/07/17 02:45:52;;;;;;;6.78;2.60;;;19.60;1.00;;;;;;7393470;19;20006;-64
2023/07/17 02:48:21;;;;;;;8.57;2.92;;;19.80;1.00;;;;;;7391198;19;20038;-64
2023/07/17 02:50:52;;;;;;;4.32;2.55;;;19.70;1.00;;;;;;7389775;19;20031;-64
2023/07/17 02:53:25;;;;;;;4.93;2.38;;;19.70;1.00;;;;;;7389472;19;20118;-64
2023/07/17 02:55:55;;;;;;;5.65;2.65;;;19.70;1.00;;;;;;7391059;19;20369;-64
2023/07/17 02:58:25;;;;;;;4.60;2.30;;;19.60;1.00;;;;;;7390533;19;20101;-64
2023/07/17 03:00:55;;;;;;;5.70;2.50;;;19.70;1.00;;;;;;7389875;19;20292;-64
2023/07/17 03:03:25;;;;;;;4.55;2.83;;;19.70;1.00;;;;;;7388176;19;20356;-64
2023/07/17 03:05:58;;;;;;;6.35;2.88;;;19.60;1.00;;;;;;7390584;19;20486;-65
2023/07/17 03:08:31;;;;;;;5.60;2.30;;;19.70;1.00;;;;;;7390679;19;20014;-65
2023/07/17 03:11:04;;;;;;;5.95;2.80;;;19.60;1.00;;;;;;7387271;19;20019;-64
2023/07/17 03:13:34;;;;;;;5.43;3.10;;;19.60;1.00;;;;;;7389163;19;20035;-64
2023/07/17 03:16:04;;;;;;;5.43;2.60;;;19.40;1.00;;;;;;7390209;19;20043;-64
2023/07/17 03:18:34;;;;;;;4.03;2.90;;;19.40;1.00;;;;;;7389851;19;20020;-64
2023/07/17 03:21:04;;;;;;;5.75;3.05;;;19.40;1.00;;;;;;7388996;19;20014;-64
2023/07/17 03:23:36;;;;;;;5.13;2.80;;;19.30;1.00;;;;;;7389491;19;20038;-64
2023/07/17 03:26:06;;;;;;;4.25;2.78;;;19.30;1.00;;;;;;7390157;19;20082;-64
2023/07/17 03:28:37;;;;;;;7.25;3.58;;;19.20;1.00;;;;;;7389562;19;20031;-64
2023/07/17 03:31:07;;;;;;;6.78;3.17;;;19.30;1.00;;;;;;7388415;19;20022;-64
2023/07/17 03:33:40;;;;;;;4.75;2.88;;;19.10;1.00;;;;;;7386314;19;20027;-64
2023/07/17 03:36:10;;;;;;;6.80;3.20;;;19.20;1.00;;;;;;7390282;19;20018;-65
2023/07/17 03:38:42;;;;;;;5.10;3.00;;;19.20;1.00;;;;;;7389283;19;20018;-64
2023/07/17 03:41:12;;;;;;;5.45;3.47;;;19.20;1.00;;;;;;7388333;19;20490;-64
2023/07/17 03:43:42;;;;;;;5.47;3.33;;;19.10;1.00;;;;;;7388910;19;20035;-64
2023/07/17 03:46:12;;;;;;;7.20;3.83;;;19.10;1.00;;;;;;7391671;19;20490;-64
2023/07/17 03:48:42;;;;;;;6.00;3.30;;;18.90;1.00;;;;;;7389149;19;20014;-64
2023/07/17 03:51:12;;;;;;;6.75;3.65;;;18.80;1.00;;;;;;7388076;19;20031;-64
2023/07/17 03:53:44;;;;;;;5.80;3.60;;;18.80;1.00;;;;;;7387925;19;20363;-64
2023/07/17 03:56:14;;;;;;;4.60;3.20;;;18.80;1.00;;;;;;7389367;19;20403;-65
2023/07/17 03:58:44;;;;;;;4.40;3.47;;;18.70;1.00;;;;;;7388678;19;20074;-64
2023/07/17 04:01:14;;;;;;;9.75;3.80;;;18.80;1.00;;;;;;7387434;19;20038;-65
2023/07/17 04:03:45;;;;;;;9.00;3.63;;;18.90;1.00;;;;;;7388281;19;20018;-64
2023/07/17 04:06:17;;;;;;;7.05;3.78;;;19.10;1.00;;;;;;7389110;19;20018;-65
2023/07/17 04:08:50;;;;;;;6.32;3.75;;;19.00;1.00;;;;;;7388498;19;20031;-64
2023/07/17 04:11:20;;;;;;;7.38;3.80;;;19.00;1.00;;;;;;7387127;19;20542;-65
2023/07/17 04:13:50;;;;;;;5.88;3.83;;;19.00;1.00;;;;;;7385854;19;20078;-64
2023/07/17 04:16:21;;;;;;;6.50;3.20;;;19.20;1.00;;;;;;7388873;19;20019;-64
2023/07/17 04:18:51;;;;;;;7.03;3.17;;;20.20;1.00;;;;;;7388477;19;20108;-64
2023/07/17 04:21:21;;;;;;;6.53;3.45;;;20.90;1.00;;;;;;7386861;19;20018;-65
2023/07/17 04:23:54;;;;;;;10.70;3.58;;;21.30;1.00;;;;;;7387590;19;20032;-65
2023/07/17 04:26:24;;;;;;;8.75;2.90;;;21.90;1.00;;;;;;7388333;19;20482;-64
2023/07/17 04:28:54;;;;;;;5.00;3.00;;;22.20;1.00;;;;;;7388096;19;20022;-64
2023/07/17 04:31:24;;;;;;;4.53;2.40;;;22.50;1.00;;;;;;7386565;19;20019;-65
2023/07/17 04:33:54;;;;;;;6.30;2.92;;;22.90;1.00;;;;;;7386576;19;20010;-65
2023/07/17 04:36:24;;;;;;;3.78;2.60;;;23.60;1.00;;;;;;7388305;19;20006;-64
2023/07/17 04:38:56;;;;;;;5.78;2.83;;;24.10;1.00;;;;;;7387717;19;20018;-64
2023/07/17 04:41:26;;;;;;;4.90;2.30;;;24.50;1.00;;;;;;7386205;19;20081;-65
2023/07/17 04:43:56;;;;;;;4.13;2.20;;;24.60;1.00;;;;;;7389977;19;20010;-65
2023/07/17 04:46:27;;;;;;;7.38;2.80;;;24.50;1.00;;;;;;7397907;19;20038;-64
2023/07/17 04:48:57;;;;;;;7.95;2.85;;;25.00;1.00;;;;;;7394673;19;20021;-65
2023/07/17 04:51:28;;;;;;;4.03;2.92;;;25.10;1.00;;;;;;7392667;19;20007;-65
2023/07/17 04:54:01;;;;;;;4.00;2.70;;;25.40;1.00;;;;;;7391258;19;20368;-64
2023/07/17 04:56:30;;;;;;;8.65;2.88;;;25.80;1.00;;;;;;7395096;19;20022;-64
2023/07/17 04:59:00;;;;;;;6.07;2.65;;;25.80;1.00;;;;;;7394340;19;20038;-64
2023/07/17 05:01:30;;;;;;;7.47;3.20;;;25.90;1.00;;;;;;7391529;19;20021;-64
2023/07/17 05:04:00;;;;;;;5.82;3.05;;;25.30;1.00;;;;;;7393284;19;20046;-64
2023/07/17 05:06:31;;;;;;;4.82;2.58;;;25.80;1.00;;;;;;7394287;19;20015;-64
2023/07/17 05:09:03;;;;;;;4.38;2.30;;;26.40;1.00;;;;;;7393737;19;20018;-64
2023/07/17 05:11:33;;;;;;;6.20;3.00;;;26.10;1.00;;;;;;7391806;19;20018;-65
2023/07/17 05:14:03;;;;;;;4.82;2.42;;;26.00;1.00;;;;;;7392380;19;20010;-64
2023/07/17 05:16:33;;;;;;;4.93;2.67;;;25.80;1.00;;;;;;7394312;19;20023;-65
2023/07/17 05:19:03;;;;;;;8.27;3.13;;;27.30;1.00;;;;;;7393560;19;20100;-64
2023/07/17 05:21:33;;;;;;;6.30;3.25;;;26.30;1.00;;;;;;7391661;19;20019;-64
2023/07/17 05:24:05;;;;;;;6.85;3.03;;;27.40;1.00;;;;;;7392976;19;20018;-63
2023/07/17 05:26:35;;;;;;;3.47;2.75;;;26.90;1.00;;;;;;7393705;19;20047;-64
2023/07/17 05:29:06;;;;;;;8.10;3.28;;;26.10;1.00;;;;;;7392751;19;20019;-65
2023/07/17 05:31:36;;;;;;;8.35;3.33;;;26.10;1.00;;;;;;7391092;19;20035;-64
2023/07/17 05:34:05;;;;;;;6.22;3.88;;;26.40;1.00;;;;;;7392283;19;20456;-65
2023/07/17 05:36:35;;;;;;;5.22;3.20;;;26.70;1.00;;;;;;7392830;19;20088;-64
2023/07/17 05:39:08;;;;;;;7.18;3.35;;;27.40;1.00;;;;;;7392267;19;20018;-64
2023/07/17 05:41:38;;;;;;;5.88;3.20;;;27.30;1.00;;;;;;7390662;19;20048;-64
2023/07/17 05:44:08;;;;;;;4.70;3.50;;;26.40;1.00;;;;;;7390982;19;20123;-64
2023/07/17 05:46:38;;;;;;;7.97;4.00;;;24.90;1.00;;;;;;7395531;19;20022;-64
2023/07/17 05:49:08;;;;;;;8.02;3.90;;;23.70;1.00;;;;;;7392039;19;20018;-64
2023/07/17 05:51:38;;;;;;;10.40;4.93;;;25.40;1.00;;;;;;7389781;19;20018;-64
2023/07/17 05:54:10;;;;;;;8.88;4.10;;;24.40;1.00;;;;;;7391467;19;20074;-64
2023/07/17 05:56:40;;;;;;;6.38;4.00;;;24.50;1.00;;;;;;7390755;19;20486;-64
2023/07/17 05:59:11;;;;;;;11.10;4.00;;;23.80;1.00;;;;;;7390350;19;20014;-64
2023/07/17 06:01:42;;;;;;;5.95;3.78;;;24.90;1.00;;;;;;7389416;19;20014;-64
2023/07/17 06:04:12;;;;;;;8.73;3.38;;;25.50;1.00;;;;;;7391572;19;20015;-64
2023/07/17 06:06:42;;;;;;;10.63;3.45;;;24.40;1.00;;;;;;7390580;19;20014;-63
2023/07/17 06:09:14;;;;;;;7.80;3.35;;;23.90;1.00;;;;;;7395549;19;20042;-64
2023/07/17 06:11:45;;;;;;;6.13;2.78;;;23.60;1.00;;;;;;7392196;19;20493;-64
2023/07/17 06:14:15;;;;;;;7.72;3.22;;;23.50;1.00;;;;;;7391073;19;20014;-65
2023/07/17 06:16:45;;;;;;;5.63;3.25;;;23.70;1.00;;;;;;7391268;19;20010;-64
2023/07/17 06:19:15;;;;;;;5.25;3.10;;;24.40;1.00;;;;;;7390959;19;20018;-64
2023/07/17 06:21:45;;;;;;;6.32;2.92;;;24.20;1.00;;;;;;7390994;19;20019;-64
2023/07/17 06:24:18;;;;;;;7.55;3.25;;;24.80;1.00;;;;;;7389720;19;20478;-65
2023/07/17 06:26:48;;;;;;;7.07;2.90;;;25.00;1.00;;;;;;7390218;19;20014;-64
2023/07/17 06:29:18;;;;;;;5.63;3.25;;;25.10;1.00;;;;;;7390519;19;20010;-64
2023/07/17 06:31:48;;;;;;;8.85;3.03;;;26.60;1.00;;;;;;7391124;19;20014;-64
2023/07/17 06:34:18;;;;;;;4.72;2.83;;;26.70;1.00;;;;;;7389984;19;20034;-65
2023/07/17 06:36:48;;;;;;;8.88;3.05;;;27.40;1.00;;;;;;7390650;19;20014;-64
2023/07/17 06:39:21;;;;;;;6.85;2.75;;;26.70;1.00;;;;;;7390034;19;20074;-65
2023/07/17 06:41:51;;;;;;;4.32;2.53;;;26.50;1.00;;;;;;7390940;19;20049;-64
2023/07/17 06:44:21;;;;;;;10.30;3.20;;;26.30;1.00;;;;;;7389745;19;20042;-64
2023/07/17 06:46:51;;;;;;;5.38;2.50;;;26.10;1.00;;;;;;7393292;19;20038;-64
2023/07/17 06:49:21;;;;;;;5.40;3.20;;;27.00;1.00;;;;;;7388754;19;20021;-65
2023/07/17 06:51:53;;;;;;;6.05;2.60;;;26.20;1.00;;;;;;7389572;19;20015;-63
2023/07/17 06:54:25;;;;;;;4.97;2.38;;;25.80;1.00;;;;;;7389744;19;20014;-64
2023/07/17 06:56:55;;;;;;;4.82;2.78;;;25.20;1.00;;;;;;7389417;19;20063;-64
2023/07/17 06:59:28;;;;;;;4.82;2.40;;;24.90;1.00;;;;;;7389582;19;20010;-64
2023/07/17 07:01:58;;;;;;;5.13;2.80;;;24.50;1.00;;;;;;7389007;19;20104;-65
2023/07/17 07:04:28;;;;;;;3.45;2.67;;;24.70;1.00;;;;;;7388437;19;20041;-64
2023/07/17 07:06:58;;;;;;;6.28;2.88;;;24.50;1.00;;;;;;7389540;19;20011;-65
2023/07/17 07:09:30;;;;;;;5.78;2.75;;;25.10;1.00;;;;;;7388683;19;20038;-65
2023/07/17 07:12:00;;;;;;;5.45;3.00;;;25.00;1.00;;;;;;7388590;19;20011;-65
2023/07/17 07:14:30;;;;;;;6.18;2.83;;;25.20;1.00;;;;;;7387701;19;20119;-65
2023/07/17 07:17:03;;;;;;;6.78;2.88;;;25.40;1.00;;;;;;7387423;19;20015;-64
2023/07/17 07:19:33;;;;;;;4.45;2.72;;;25.40;1.00;;;;;;7388418;19;20031;-64
2023/07/17 07:22:03;;;;;;;8.60;3.03;;;25.10;1.00;;;;;;7388840;19;20018;-64
2023/07/17 07:24:36;;;;;;;7.47;2.90;;;24.90;1.00;;;;;;7388110;19;20011;-64
2023/07/17 07:27:07;;;;;;;6.68;3.80;;;24.60;1.00;;;;;;7387547;19;20014;-64
2023/07/17 07:29:37;;;;;;;5.65;3.40;;;24.70;1.00;;;;;;7388446;19;20082;-64
2023/07/17 07:32:07;;;;;;;6.68;3.25;;;25.40;1.00;;;;;;7388741;19;20605;-64
2023/07/17 07:34:40;;;;;;;5.18;3.15;;;25.20;1.00;;;;;;7388652;19;20517;-64
2023/07/17 07:37:10;;;;;;;9.07;3.47;;;25.30;1.00;;;;;;7387096;19;20087;-64
2023/07/17 07:39:43;;;;;;;7.28;3.20;;;25.00;1.00;;;;;;7388134;19;20014;-64
2023/07/17 07:42:13;;;;;;;4.82;3.03;;;25.40;1.00;;;;;;7388756;19;20128;-64
2023/07/17 07:44:43;;;;;;;8.15;3.33;;;25.50;1.00;;;;;;7388743;19;20022;-64
2023/07/17 07:47:13;;;;;;;9.85;4.07;;;24.80;1.00;;;;;;7392027;19;20457;-64
2023/07/17 07:49:43;;;;;;;7.95;3.85;;;25.60;1.00;;;;;;7388291;19;20017;-65
2023/07/17 07:52:17;;;;;;;6.57;3.55;;;25.60;1.00;;;;;;7389303;19;20344;-64
2023/07/17 07:54:49;;;;;;;8.60;3.30;;;25.40;1.00;;;;;;7388346;19;20014;-64
2023/07/17 07:57:24;;;;;;;6.13;3.25;;;25.80;1.00;;;;;;7386389;19;20019;-64
2023/07/17 07:59:54;;;;;;;7.50;3.83;;;26.10;1.00;;;;;;7387600;19;20019;-64
2023/07/17 08:02:24;;;;;;;7.97;3.95;;;25.70;1.00;;;;;;7387746;19;20032;-64
2023/07/17 08:04:54;;;;;;;5.72;3.72;;;25.70;1.00;;;;;;7387013;19;20015;-64
2023/07/17 08:07:24;;;;;;;16.58;12.07;;;25.30;1.00;;;;;;7388287;19;20022;-64
2023/07/17 08:09:57;;;;;;;4.85;4.00;;;25.80;1.00;;;;;;7387377;19;20038;-63
2023/07/17 08:12:27;;;;;;;10.30;4.10;;;25.90;1.00;;;;;;7388017;19;20022;-64
2023/07/17 08:14:57;;;;;;;5.95;3.63;;;26.00;1.00;;;;;;7387282;19;20071;-64
2023/07/17 08:17:26;;;;;;;12.88;4.00;;;25.80;1.00;;;;;;7385401;19;20403;-65
2023/07/17 08:19:56;;;;;;;6.45;3.85;;;25.40;1.00;;;;;;7391960;19;20026;-64
2023/07/17 08:22:26;;;;;;;7.57;3.58;;;25.30;1.00;;;;;;7395202;19;20019;-64
2023/07/17 08:24:59;;;;;;;6.18;3.47;;;25.80;1.00;;;;;;7394092;19;20018;-65
2023/07/17 08:27:29;;;;;;;7.40;3.75;;;26.20;1.00;;;;;;7395276;19;20015;-65
2023/07/17 08:29:59;;;;;;;5.00;3.47;;;26.20;1.00;;;;;;7392042;19;20029;-63
2023/07/17 08:32:29;;;;;;;8.65;3.67;;;25.60;1.00;;;;;;7393433;19;20051;-64
2023/07/17 08:34:59;;;;;;;6.90;3.42;;;26.40;1.00;;;;;;7394534;19;20037;-64
2023/07/17 08:37:29;;;;;;;5.25;3.80;;;26.30;1.00;;;;;;7392492;19;20018;-64
2023/07/17 08:40:01;;;;;;;7.28;4.40;;;24.80;1.00;;;;;;7392844;19;20023;-64
2023/07/17 08:42:32;;;;;;;6.10;3.53;;;24.80;1.00;;;;;;7393063;19;20022;-64
2023/07/17 08:45:04;;;;;;;7.85;3.97;;;24.70;1.00;;;;;;7395065;19;20081;-65
2023/07/17 08:47:34;;;;;;;7.25;3.58;;;24.60;1.00;;;;;;7392111;19;20078;-65
2023/07/17 08:50:05;;;;;;;7.32;4.20;;;25.50;1.00;;;;;;7392984;19;20029;-64
2023/07/17 08:52:35;;;;;;;6.28;3.72;;;25.30;1.00;;;;;;7392882;19;20051;-65
2023/07/17 08:55:08;;;;;;;7.97;3.78;;;25.70;1.00;;;;;;7393774;19;20410;-66
2023/07/17 08:57:38;;;;;;;6.38;3.45;;;25.50;1.00;;;;;;7391471;19;20014;-64
2023/07/17 09:00:15;;;;;;;8.05;3.60;;;25.20;1.00;;;;;;7390859;19;20014;-66
2023/07/17 09:02:45;;;;;;;7.05;4.63;;;25.10;1.00;;;;;;7393575;19;20422;-65
2023/07/17 09:05:15;;;;;;;7.80;4.32;;;25.80;1.00;;;;;;7391748;19;20433;-65
2023/07/17 09:07:47;;;;;;;6.93;4.00;;;25.90;1.00;;;;;;7394312;19;20011;-64
2023/07/17 09:10:23;;;;;;;7.50;3.80;;;26.10;1.00;;;;;;7392083;19;20015;-63
2023/07/17 09:12:55;;;;;;;5.82;3.63;;;27.00;1.00;;;;;;7394355;19;20078;-64
2023/07/17 09:15:25;;;;;;;5.55;3.65;;;26.80;1.00;;;;;;7392446;19;20023;-65
2023/07/17 09:17:55;;;;;;;9.93;3.67;;;26.40;1.00;;;;;;7389762;19;20086;-65
2023/07/17 09:20:25;;;;;;;9.30;4.20;;;26.20;1.00;;;;;;7391316;19;20090;-64
2023/07/17 09:22:58;;;;;;;7.22;4.00;;;25.70;1.00;;;;;;7393547;19;20046;-64
2023/07/17 09:25:32;;;;;;;5.70;3.70;;;26.60;1.00;;;;;;7393077;19;20014;-64
2023/07/17 09:28:02;;;;;;;6.97;3.72;;;26.60;1.00;;;;;;7392521;19;20018;-64
2023/07/17 09:30:32;;;;;;;6.25;4.00;;;26.70;1.00;;;;;;7388514;19;20018;-65
2023/07/17 09:33:08;;;;;;;4.57;3.28;;;26.40;1.00;;;;;;7392509;19;20014;-64
2023/07/17 09:35:38;;;;;;;4.53;3.38;;;26.40;1.00;;;;;;7392437;19;20014;-64
2023/07/17 09:38:12;;;;;;;5.22;3.35;;;26.10;1.00;;;;;;7390441;19;20078;-64
2023/07/17 09:40:44;;;;;;;6.05;3.55;;;25.30;1.00;;;;;;7391307;19;20014;-64
2023/07/17 09:43:14;;;;;;;6.07;3.97;;;26.50;1.00;;;;;;7392764;19;20327;-64
2023/07/17 09:45:45;;;;;;;6.50;3.58;;;27.20;1.00;;;;;;7393328;19;20019;-64
2023/07/17 09:48:16;;;;;;;8.88;3.75;;;27.50;1.00;;;;;;7391738;19;20788;-64
2023/07/17 09:50:47;;;;;;;6.85;3.70;;;26.80;1.00;;;;;;7390620;19;20011;-64
2023/07/17 09:53:17;;;;;;;5.80;3.63;;;26.20;1.00;;;;;;7391576;19;20083;-65
2023/07/17 09:55:54;;;;;;;7.60;3.83;;;27.50;1.00;;;;;;7394643;19;20506;-66
2023/07/17 09:58:27;;;;;;;6.57;3.65;;;27.30;1.00;;;;;;7388666;19;20018;-65
2023/07/17 10:00:59;;;;;;;10.15;3.95;;;28.10;1.00;;;;;;7390830;19;20026;-68
2023/07/17 10:03:29;;;;;;;5.75;3.95;;;27.00;1.00;;;;;;7390279;19;20038;-64
2023/07/17 10:06:01;;;;;;;4.88;3.67;;;26.30;1.00;;;;;;7390671;19;20038;-65
2023/07/17 10:08:31;;;;;;;5.85;3.80;;;25.50;1.00;;;;;;7391090;19;20011;-65
2023/07/17 10:11:03;;;;;;;8.18;4.13;;;25.50;1.00;;;;;;7389603;19;20011;-65
2023/07/17 10:13:34;;;;;;;8.55;4.10;;;25.80;1.00;;;;;;7390597;19;20034;-64
2023/07/17 10:16:04;;;;;;;8.57;4.13;;;25.80;1.00;;;;;;7390130;19;20058;-64
2023/07/17 10:18:34;;;;;;;8.88;4.85;;;25.80;1.00;;;;;;7389047;19;20023;-64
2023/07/17 10:21:05;;;;;;;11.55;4.28;;;26.00;1.00;;;;;;7389127;19;20018;-65
2023/07/17 10:23:37;;;;;;;8.52;4.15;;;25.40;1.00;;;;;;7390730;19;20018;-64
2023/07/17 10:26:14;;;;;;;7.55;4.03;;;25.60;1.00;;;;;;7391163;19;20018;-65
2023/07/17 10:28:46;;;;;;;6.50;4.10;;;25.80;1.00;;;;;;7390727;19;20015;-64
2023/07/17 10:31:20;;;;;;;8.40;4.85;;;26.80;1.00;;;;;;7388800;19;20070;-64
2023/07/17 10:33:52;;;;;;;8.32;4.20;;;26.60;1.00;;;;;;7390274;19;20019;-64
2023/07/17 10:36:39;;;;;;;5.70;3.90;;;26.40;1.00;;;;;;7389909;19;20018;-64
2023/07/17 10:39:10;;;;;;;6.82;3.78;;;26.10;1.00;;;;;;7389359;19;20039;-64
2023/07/17 10:41:44;;;;;;;7.30;4.70;;;26.80;1.00;;;;;;7387373;19;20018;-64
2023/07/17 10:44:21;;;;;;;5.07;3.92;;;26.50;1.00;;;;;;7390630;19;20021;-64
2023/07/17 10:46:51;;;;;;;5.53;4.25;;;26.40;1.00;;;;;;7394157;19;20014;-64
2023/07/17 10:49:21;;;;;;;7.80;4.22;;;26.60;1.00;;;;;;7390045;19;20026;-65
2023/07/17 10:51:53;;;;;;;7.93;4.15;;;26.50;1.00;;;;;;7389327;19;20014;-63
2023/07/17 10:54:24;;;;;;;7.95;4.00;;;26.30;1.00;;;;;;7388175;19;20037;-63
2023/07/17 10:56:58;;;;;;;7.47;4.20;;;26.20;1.00;;;;;;7390111;19;20022;-63
2023/07/17 10:59:28;;;;;;;;;;;25.10;1.00;;;;;;7389782;19;20031;-63
2023/07/17 11:02:03;;;;;;;8.63;4.03;;;25.40;1.00;;;;;;7388762;19;20352;-63
2023/07/17 11:04:35;;;;;;;8.70;4.80;;;25.70;1.00;;;;;;7389367;19;20038;-63
2023/07/17 11:07:10;;;;;;;6.57;4.07;;;26.10;1.00;;;;;;7387832;19;20081;-63
2023/07/17 11:09:40;;;;;;;8.15;4.28;;;25.30;1.00;;;;;;7388100;19;20026;-63
2023/07/17 11:12:13;;;;;;;7.13;4.05;;;24.90;1.00;;;;;;7389132;19;20086;-62
2023/07/17 11:14:43;;;;;;;6.47;4.15;;;25.30;1.00;;;;;;7389732;19;20027;-64
2023/07/17 11:17:14;;;;;;;6.43;3.95;;;25.50;1.00;;;;;;7387684;19;20014;-64
2023/07/17 11:19:44;;;;;;;9.45;4.47;;;25.00;1.00;;;;;;7389229;19;20755;-63
2023/07/17 11:22:14;;;;;;;7.10;4.13;;;25.60;1.00;;;;;;7389225;19;20680;-63
2023/07/17 11:24:44;;;;;;;7.18;3.85;;;25.80;1.00;;;;;;7388626;19;20485;-63
2023/07/17 11:27:17;;;;;;;8.13;4.28;;;26.30;1.00;;;;;;7389131;19;20073;-63
2023/07/17 11:29:50;;;;;;;8.25;3.53;;;25.80;1.00;;;;;;7388793;19;20041;-63
2023/07/17 11:32:20;;;;;;;7.72;3.70;;;25.80;1.00;;;;;;7389289;19;20042;-63
2023/07/17 11:34:55;;;;;;;7.55;3.90;;;25.40;1.00;;;;;;7386203;19;20019;-63
2023/07/17 11:37:33;;;;;;;6.20;3.55;;;25.50;1.00;;;;;;7389121;19;20022;-63
2023/07/17 11:40:06;;;;;;;9.27;3.90;;;25.50;1.00;;;;;;7387831;19;20035;-63
2023/07/17 11:42:57;;;;;;;4.82;3.75;;;25.70;1.00;;;;;;7388913;19;20645;-63
2023/07/17 11:45:28;;;;;;;8.25;3.42;;;25.10;1.00;;;;;;7388862;19;20014;-62
2023/07/17 11:47:59;;;;;;;6.80;3.92;;;25.10;1.00;;;;;;7388288;19;20010;-63
2023/07/17 11:50:30;;;;;;;6.50;3.80;;;24.90;1.00;;;;;;7387023;19;20014;-63
2023/07/17 11:53:07;;;;;;;4.97;3.90;;;25.40;1.00;;;;;;7386056;19;20016;-64
2023/07/17 11:55:37;;;;;;;6.93;3.90;;;25.50;1.00;;;;;;7387534;19;20018;-64
2023/07/17 11:58:17;;;;;;;6.15;3.50;;;25.40;1.00;;;;;;7387093;19;20018;-64
2023/07/17 12:00:50;;;;;;;7.28;4.07;;;25.50;1.00;;;;;;7388026;19;20014;-64
2023/07/17 12:03:20;;;;;;;6.50;3.63;;;26.00;1.00;;;;;;7388094;19;20482;-64
2023/07/17 12:05:50;;;;;;;5.05;3.53;;;26.10;1.00;;;;;;7388222;19;20042;-63
2023/07/17 12:08:20;;;;;;;5.82;3.70;;;25.90;1.00;;;;;;7387247;19;20020;-63
2023/07/17 12:10:50;;;;;;;9.73;3.35;;;26.00;1.00;;;;;;7385893;19;20552;-64
2023/07/17 12:13:22;;;;;;;8.77;3.53;;;25.90;1.00;;;;;;7387785;19;20022;-64
2023/07/17 12:15:53;;;;;;;6.60;3.88;;;26.00;1.00;;;;;;7387995;19;20014;-65
2023/07/17 12:18:23;;;;;;;5.05;3.60;;;26.50;1.00;;;;;;7387314;19;20014;-64
2023/07/17 12:20:53;;;;;;;5.63;3.45;;;26.00;1.00;;;;;;7385098;19;20084;-64
2023/07/17 12:23:23;;;;;;;6.65;3.72;;;25.50;1.00;;;;;;7384096;19;20506;-65
2023/07/17 12:25:53;;;;;;;4.60;3.38;;;25.30;1.00;;;;;;7387575;19;20027;-64
2023/07/17 12:28:25;;;;;;;6.47;3.60;;;25.40;1.00;;;;;;7386813;19;20471;-64
2023/07/17 12:30:55;;;;;;;6.60;3.08;;;25.90;1.00;;;;;;7386065;19;20014;-64
2023/07/17 12:33:26;;;;;;;7.43;3.28;;;25.70;1.00;;;;;;7386704;19;20017;-64
2023/07/17 12:35:56;;;;;;;5.32;3.13;;;25.80;1.00;;;;;;7388292;19;20387;-64
2023/07/17 12:38:26;;;;;;;7.60;3.60;;;26.20;1.00;;;;;;7386662;19;20094;-64
2023/07/17 12:40:55;;;;;;;7.13;3.50;;;26.10;1.00;;;;;;7385559;19;20537;-64
2023/07/17 12:43:28;;;;;;;6.15;3.42;;;26.10;1.00;;;;;;7384163;19;20014;-64
2023/07/17 12:45:58;;;;;;;6.03;3.22;;;26.40;1.00;;;;;;7388555;19;20031;-63
2023/07/17 12:48:28;;;;;;;7.07;3.42;;;26.50;1.00;;;;;;7387032;19;20358;-64
2023/07/17 12:50:59;;;;;;;6.35;3.03;;;26.50;1.00;;;;;;7385211;19;20078;-64
2023/07/17 12:53:29;;;;;;;5.88;3.10;;;26.10;1.00;;;;;;7386345;19;20015;-65
2023/07/17 12:55:59;;;;;;;7.38;3.28;;;26.10;1.00;;;;;;7386282;19;20019;-64
2023/07/17 12:58:48;;;;;;;8.45;3.50;;;26.00;1.00;;;;;;7385961;19;20038;-64
2023/07/17 13:01:21;;;;;;;5.60;3.38;;;25.80;1.00;;;;;;7384639;19;20058;-64
2023/07/17 13:03:52;;;;;;;6.10;3.70;;;25.80;1.00;;;;;;7385695;19;20006;-64
2023/07/17 13:06:22;;;;;;;6.13;3.92;;;25.80;1.00;;;;;;7393130;19;20014;-64
2023/07/17 13:08:52;;;;;;;10.63;4.00;;;25.80;1.00;;;;;;7392680;19;20094;-64
2023/07/17 13:11:24;;;;;;;7.82;3.50;;;25.70;1.00;;;;;;7390559;19;20019;-64
2023/07/17 13:13:56;;;;;;;6.18;3.20;;;26.10;1.00;;;;;;7392295;19;20514;-64
2023/07/17 13:16:26;;;;;;;7.15;3.50;;;26.30;1.00;;;;;;7393442;19;20034;-62